Time;durP1;ratioP1;P1;durP2;ratioP2;P2;SDS_P1;SDS_P2;PMS_P1;PMS_P2;Temp;Humidity;BMP_temperature;BMP_pressure;BME280_temperature;BME280_humidity;BME280_pressure;Samples;Min_cycle;Max_cycle;Signal;HPM_P1;HPM_P2
2022/08/22 00:00:32;;;;;;;6.88;6.28;;;;;;;19.90;69.34;94270.66;4947432;28;20244;-64
2022/08/22 00:03:09;;;;;;;7.03;6.40;;;;;;;19.83;69.40;94270.75;4962475;28;20233;-63
2022/08/22 00:05:59;;;;;;;6.57;5.97;;;;;;;19.90;69.33;94265.31;4963714;28;20227;-63
2022/08/22 00:08:34;;;;;;;6.60;6.00;;;;;;;19.97;68.95;94260.69;4968419;28;20210;-63
2022/08/22 00:11:26;;;;;;;8.02;6.90;;;;;;;19.92;68.83;94259.75;4986503;28;20280;-63
2022/08/22 00:14:22;;;;;;;8.18;7.45;;;;;;;19.91;68.84;94261.59;4980493;28;20254;-63
2022/08/22 00:17:01;;;;;;;8.13;7.38;;;;;;;19.85;69.15;94269.69;4969349;28;20242;-62
2022/08/22 00:19:45;;;;;;;9.05;7.50;;;;;;;19.84;69.30;94266.22;4985924;28;20253;-63
2022/08/22 00:22:31;;;;;;;8.18;7.45;;;;;;;19.87;69.42;94259.63;4987185;28;20223;-62
2022/08/22 00:25:34;;;;;;;7.68;7.07;;;;;;;19.81;69.29;94262.16;4985282;28;20250;-62
2022/08/22 00:28:13;;;;;;;8.00;7.30;;;;;;;19.76;69.55;94261.22;5032789;28;20274;-62
2022/08/22 00:31:24;;;;;;;7.93;7.07;;;;;;;19.68;69.89;94259.69;5041657;28;20312;-63
2022/08/22 00:34:03;;;;;;;8.38;7.25;;;;;;;19.72;70.00;94258.16;5006464;28;20289;-63
2022/08/22 00:36:42;;;;;;;9.82;8.82;;;;;;;19.78;69.72;94251.94;4989041;28;20226;-63
2022/08/22 00:39:16;;;;;;;9.40;8.50;;;;;;;19.78;69.71;94256.44;5014442;28;20222;-63
2022/08/22 00:41:56;;;;;;;10.38;9.50;;;;;;;19.75;69.95;94252.41;4995113;28;20245;-63
2022/08/22 00:44:41;;;;;;;10.82;9.93;;;;;;;19.72;70.01;94246.69;4983024;28;20252;-63
2022/08/22 00:47:37;;;;;;;10.82;9.82;;;;;;;19.75;70.02;94240.91;5010548;28;20215;-63
2022/08/22 00:50:17;;;;;;;12.85;11.75;;;;;;;19.77;69.98;94247.63;4986353;28;20223;-63
2022/08/22 00:53:06;;;;;;;13.05;11.85;;;;;;;19.68;70.43;94245.53;4986614;28;20226;-63
2022/08/22 00:55:36;;;;;;;12.73;11.52;;;;;;;19.71;70.09;94239.75;4917448;29;20233;-63
2022/08/22 00:58:20;;;;;;;12.07;11.00;;;;;;;19.74;70.10;94248.09;4930736;29;20229;-63
2022/08/22 01:00:57;;;;;;;12.80;11.70;;;;;;;19.67;70.39;94250.03;4916450;29;20240;-62
2022/08/22 01:03:30;;;;;;;13.05;11.95;;;;;;;19.59;70.84;94239.66;4927266;28;20229;-62
2022/08/22 01:06:22;;;;;;;12.45;11.35;;;;;;;19.65;70.51;94241.44;4915159;29;20333;-63
2022/08/22 01:09:22;;;;;;;12.13;11.07;;;;;;;19.67;70.69;94238.56;4939435;28;20260;-63
2022/08/22 01:11:56;;;;;;;12.80;11.57;;;;;;;19.64;70.70;94247.78;4958074;28;20318;-63
2022/08/22 01:14:41;;;;;;;12.20;11.25;;;;;;;19.63;70.58;94240.03;4950496;28;20216;-62
2022/08/22 01:17:26;;;;;;;13.60;12.40;;;;;;;19.65;70.68;94244.09;4951028;28;20235;-62
2022/08/22 01:20:28;;;;;;;13.15;11.82;;;;;;;19.64;70.81;94239.78;4957248;28;20225;-62
2022/08/22 01:23:11;;;;;;;12.57;11.48;;;;;;;19.64;70.70;94245.13;4943166;28;20220;-62
2022/08/22 01:26:10;;;;;;;13.65;12.50;;;;;;;19.68;70.64;94245.53;4940245;28;20643;-62
2022/08/22 01:29:00;;;;;;;12.65;11.55;;;;;;;19.58;70.95;94241.50;4948951;28;20314;-62
2022/08/22 01:32:03;;;;;;;13.13;11.77;;;;;;;19.55;71.21;94238.50;4951809;28;20279;-62
2022/08/22 01:34:47;;;;;;;13.32;12.20;;;;;;;19.56;71.07;94248.09;5013258;28;20232;-63
2022/08/22 01:37:46;;;;;;;12.85;11.75;;;;;;;19.58;71.05;94254.03;5014557;28;20299;-61
2022/08/22 01:40:24;;;;;;;13.65;12.25;;;;;;;19.54;71.21;94261.69;5022310;28;20263;-62
2022/08/22 01:42:52;;;;;;;13.70;12.50;;;;;;;19.55;71.29;94262.50;5039228;28;20324;-62
2022/08/22 01:45:39;;;;;;;12.57;11.48;;;;;;;19.54;71.25;94255.50;5036127;28;20236;-61
2022/08/22 01:48:15;;;;;;;13.43;12.23;;;;;;;19.55;71.10;94255.31;5045177;28;20228;-61
2022/08/22 01:50:40;;;;;;;14.40;12.90;;;;;;;19.48;71.32;94253.75;5043211;28;20226;-61
2022/08/22 01:53:38;;;;;;;12.77;11.63;;;;;;;19.44;71.60;94247.25;5037728;28;20209;-62
2022/08/22 01:56:11;;;;;;;13.15;11.95;;;;;;;19.38;71.65;94252.44;5036230;28;20232;-62
2022/08/22 01:58:44;;;;;;;13.27;12.02;;;;;;;19.39;71.71;94251.41;5035448;28;20218;-62
2022/08/22 02:01:10;;;;;;;13.07;11.88;;;;;;;19.33;71.93;94246.97;5033162;28;20222;-62
2022/08/22 02:04:04;;;;;;;13.27;12.18;;;;;;;19.36;71.85;94248.38;5035780;28;20224;-63
2022/08/22 02:06:59;;;;;;;13.45;12.27;;;;;;;19.37;71.75;94255.34;5046444;28;20318;-62
2022/08/22 02:09:43;;;;;;;14.07;12.80;;;;;;;19.27;72.18;94239.06;5032812;28;20226;-62
2022/08/22 02:12:18;;;;;;;14.30;12.93;;;;;;;19.27;72.08;94241.72;5038610;28;20263;-63
2022/08/22 02:14:49;;;;;;;15.55;14.23;;;;;;;19.35;71.91;94246.75;5032209;28;20251;-62
2022/08/22 02:17:24;;;;;;;14.95;13.60;;;;;;;19.37;71.60;94245.47;5037368;28;20232;-63
2022/08/22 02:20:21;;;;;;;15.93;14.32;;;;;;;19.31;71.88;94245.56;5032828;28;20229;-62
2022/08/22 02:22:59;;;;;;;14.45;13.05;;;;;;;19.25;72.22;94243.81;5029126;28;20240;-63
2022/08/22 02:25:32;;;;;;;14.85;13.52;;;;;;;19.26;72.10;94251.56;5046590;28;20225;-64
2022/08/22 02:28:15;;;;;;;15.20;13.85;;;;;;;19.29;71.87;94245.78;5043759;28;20225;-64
2022/08/22 02:30:55;;;;;;;15.85;14.45;;;;;;;19.25;72.00;94247.28;5038791;28;20221;-63
2022/08/22 02:33:37;;;;;;;15.68;14.27;;;;;;;19.22;72.08;94241.56;5035834;28;20222;-62
2022/08/22 02:36:14;;;;;;;15.68;14.27;;;;;;;19.20;71.97;94247.16;5032227;28;20229;-63
2022/08/22 02:39:07;;;;;;;15.40;14.00;;;;;;;19.20;72.27;94247.16;5034866;28;20236;-63
2022/08/22 02:41:51;;;;;;;15.93;14.43;;;;;;;19.16;72.32;94251.28;5045533;28;20371;-63
2022/08/22 02:44:29;;;;;;;17.27;15.63;;;;;;;19.12;72.20;94248.25;5041831;28;20224;-63
2022/08/22 02:47:10;;;;;;;16.88;15.25;;;;;;;19.15;72.21;94241.66;5039748;28;20833;-65
2022/08/22 02:50:38;;;;;;;17.23;15.40;;;;;;;19.15;71.94;94253.13;5033382;28;20228;-62
2022/08/22 02:53:16;;;;;;;17.63;15.85;;;;;;;19.00;72.42;94254.53;4906041;29;20230;-63
2022/08/22 02:55:57;;;;;;;17.10;15.52;;;;;;;19.03;72.59;94264.75;4909084;29;20233;-62
2022/08/22 02:58:45;;;;;;;17.73;16.10;;;;;;;18.99;72.63;94258.25;4894923;29;20251;-62
2022/08/22 03:01:13;;;;;;;16.70;15.10;;;;;;;19.01;72.42;94251.69;4913221;29;20234;-63
2022/08/22 03:03:41;;;;;;;16.95;15.43;;;;;;;18.91;72.74;94254.84;4906260;29;20230;-63
2022/08/22 03:06:33;;;;;;;18.17;15.98;;;;;;;18.90;72.84;94255.91;4911499;29;20226;-63
2022/08/22 03:09:07;;;;;;;17.80;16.17;;;;;;;18.88;72.63;94257.16;4906452;29;20263;-62
2022/08/22 03:11:38;;;;;;;17.67;15.73;;;;;;;18.92;72.52;94258.31;4908298;29;20213;-63
2022/08/22 03:14:26;;;;;;;17.15;15.55;;;;;;;18.84;72.59;94247.97;4891929;29;20234;-63
2022/08/22 03:17:02;;;;;;;17.42;15.82;;;;;;;18.90;72.44;94260.41;4909473;29;20230;-62
2022/08/22 03:19:59;;;;;;;17.33;15.63;;;;;;;18.83;72.76;94262.31;4909829;29;20232;-63
2022/08/22 03:22:30;;;;;;;17.27;15.68;;;;;;;18.85;72.75;94263.72;4907201;29;20222;-63
2022/08/22 03:25:22;;;;;;;17.17;15.48;;;;;;;18.89;72.51;94264.91;4911015;29;20241;-62
2022/08/22 03:28:06;;;;;;;18.25;16.55;;;;;;;18.85;72.55;94263.72;4892612;29;20284;-63
2022/08/22 03:30:43;;;;;;;17.60;16.00;;;;;;;18.84;72.88;94270.06;4977952;28;20227;-63
2022/08/22 03:33:14;;;;;;;16.75;15.05;;;;;;;18.85;72.76;94265.59;4977654;28;20356;-62
2022/08/22 03:35:45;;;;;;;16.67;15.13;;;;;;;18.84;72.56;94264.75;4979860;28;20275;-63
2022/08/22 03:38:32;;;;;;;18.83;16.92;;;;;;;18.81;72.72;94262.53;4968829;28;20207;-63
2022/08/22 03:41:16;;;;;;;17.98;16.33;;;;;;;18.79;72.87;94264.63;4978915;28;20232;-63
2022/08/22 03:44:06;;;;;;;18.55;16.85;;;;;;;18.82;72.82;94264.19;4968156;28;20309;-63
2022/08/22 03:46:34;;;;;;;19.65;15.73;;;;;;;18.81;72.78;94267.06;4966775;28;20231;-62
2022/08/22 03:49:15;;;;;;;17.48;15.73;;;;;;;18.72;72.98;94264.66;4984354;28;20224;-62
2022/08/22 03:51:40;;;;;;;17.35;15.75;;;;;;;18.66;73.07;94265.53;4974531;28;20227;-62
2022/08/22 03:54:27;;;;;;;16.90;15.40;;;;;;;18.68;72.98;94260.81;4978521;28;20281;-62
2022/08/22 03:57:11;;;;;;;18.48;16.73;;;;;;;18.65;73.22;94263.88;4964591;28;20227;-63
2022/08/22 03:59:48;;;;;;;18.13;16.13;;;;;;;18.67;73.16;94266.34;4968101;28;20242;-63
2022/08/22 04:02:20;;;;;;;16.92;15.43;;;;;;;18.66;73.08;94257.53;4971239;28;20311;-63
2022/08/22 04:04:55;;;;;;;17.10;15.50;;;;;;;18.78;72.85;94260.31;5005362;28;20245;-63
2022/08/22 04:08:02;;;;;;;17.40;15.68;;;;;;;18.79;72.43;94261.13;5048253;28;20236;-63
2022/08/22 04:10:46;;;;;;;18.73;16.92;;;;;;;18.76;72.41;94261.56;4959857;28;20363;-63
2022/08/22 04:13:48;;;;;;;16.75;15.20;;;;;;;18.77;72.49;94256.03;4969497;28;20239;-62
2022/08/22 04:16:25;;;;;;;17.33;15.63;;;;;;;18.84;72.30;94255.94;4950130;28;20227;-63
2022/08/22 04:19:11;;;;;;;17.48;15.68;;;;;;;18.82;72.36;94258.00;4948183;28;20227;-63
2022/08/22 04:21:43;;;;;;;16.73;15.13;;;;;;;18.80;72.48;94260.91;4951303;28;20294;-63
2022/08/22 04:24:36;;;;;;;17.27;15.68;;;;;;;18.83;72.49;94270.31;4964829;28;20282;-63
2022/08/22 04:27:09;;;;;;;18.25;16.52;;;;;;;18.89;72.28;94259.56;4970506;28;20315;-63
2022/08/22 04:29:54;;;;;;;17.70;15.57;;;;;;;18.96;72.23;94262.19;4947952;28;20223;-63
2022/08/22 04:32:20;;;;;;;18.95;16.83;;;;;;;19.01;71.71;94262.34;4952183;28;20223;-63
2022/08/22 04:34:56;;;;;;;16.42;14.93;;;;;;;19.03;71.75;94264.75;4946942;28;20215;-62
2022/08/22 04:37:44;;;;;;;17.20;15.60;;;;;;;19.08;71.63;94272.91;4962153;28;20263;-62
2022/08/22 04:40:20;;;;;;;17.08;15.23;;;;;;;19.11;71.39;94270.63;4954330;28;20250;-62
2022/08/22 04:42:55;;;;;;;15.55;14.02;;;;;;;19.14;71.46;94278.16;4960859;28;20240;-61
2022/08/22 04:45:42;;;;;;;15.57;14.18;;;;;;;19.26;70.96;94280.88;4969887;28;20324;-63
2022/08/22 04:48:20;;;;;;;16.55;14.88;;;;;;;19.36;70.60;94277.72;5037380;28;20249;-60
2022/08/22 04:50:56;;;;;;;15.75;14.35;;;;;;;19.38;70.16;94275.63;5040787;28;20221;-61
2022/08/22 04:53:39;;;;;;;16.48;14.80;;;;;;;19.42;70.17;94273.31;5042255;28;20189;-61
2022/08/22 04:56:42;;;;;;;16.83;15.18;;;;;;;19.47;69.97;94276.13;5031574;28;20198;-61
2022/08/22 04:59:11;;;;;;;15.82;14.32;;;;;;;19.50;69.92;94275.69;5035080;28;20244;-62
2022/08/22 05:01:42;;;;;;;15.90;14.48;;;;;;;19.54;69.76;94283.03;5035430;28;20308;-62
2022/08/22 05:04:13;;;;;;;16.52;14.93;;;;;;;19.73;69.13;94280.34;5034284;28;20233;-61
2022/08/22 05:06:46;;;;;;;15.75;14.40;;;;;;;19.66;69.27;94288.41;5035360;28;20308;-62
2022/08/22 05:09:17;;;;;;;15.20;13.80;;;;;;;19.61;69.46;94290.91;5038762;28;20241;-61
2022/08/22 05:11:47;;;;;;;15.85;14.25;;;;;;;19.79;69.04;94298.91;5036668;28;20233;-61
2022/08/22 05:14:24;;;;;;;15.10;13.57;;;;;;;19.85;69.15;94291.03;5039500;28;20194;-61
2022/08/22 05:16:53;;;;;;;15.93;14.35;;;;;;;19.91;68.71;94292.78;5037269;28;20217;-61
2022/08/22 05:19:27;;;;;;;15.73;14.30;;;;;;;19.93;68.26;94296.06;5043549;28;20226;-61
2022/08/22 05:21:56;;;;;;;15.02;13.73;;;;;;;19.80;69.00;94303.19;5039691;28;20360;-61
2022/08/22 05:24:30;;;;;;;15.52;13.38;;;;;;;20.01;68.37;94306.41;5040546;28;20301;-61
2022/08/22 05:26:57;;;;;;;15.48;13.88;;;;;;;20.05;68.00;94299.59;5038267;28;20229;-61
2022/08/22 05:29:29;;;;;;;15.23;13.73;;;;;;;19.88;68.98;94301.25;5035606;28;20281;-61
2022/08/22 05:32:10;;;;;;;16.13;14.43;;;;;;;19.95;68.91;94307.31;5035231;28;20222;-61
2022/08/22 05:34:39;;;;;;;15.18;13.63;;;;;;;20.02;68.58;94310.69;5034760;28;20296;-61
2022/08/22 05:37:38;;;;;;;14.65;13.35;;;;;;;20.01;68.74;94306.41;5045480;28;20245;-61
2022/08/22 05:40:06;;;;;;;14.75;13.13;;;;;;;20.14;67.70;94303.53;4970076;28;20234;-61
2022/08/22 05:42:35;;;;;;;16.33;14.05;;;;;;;20.43;67.28;94306.41;4977613;28;20452;-64
2022/08/22 05:45:04;;;;;;;14.88;13.48;;;;;;;20.26;67.20;94317.75;4978244;28;20251;-61
2022/08/22 05:47:39;;;;;;;16.10;14.60;;;;;;;20.33;66.96;94314.16;4975307;28;20219;-61
2022/08/22 05:50:19;;;;;;;15.38;13.95;;;;;;;20.28;67.16;94318.31;4977538;28;20243;-63
2022/08/22 05:53:11;;;;;;;16.08;14.30;;;;;;;20.38;67.16;94323.09;4967798;28;20344;-64
2022/08/22 05:56:03;;;;;;;17.05;15.27;;;;;;;20.35;67.22;94328.09;4964843;28;20786;-63
2022/08/22 05:58:37;;;;;;;15.13;13.60;;;;;;;20.39;66.91;94334.59;4965830;28;20243;-63
2022/08/22 06:01:21;;;;;;;16.45;14.85;;;;;;;20.50;66.78;94336.47;4975964;28;20231;-64
2022/08/22 06:04:04;;;;;;;14.48;13.20;;;;;;;20.63;65.95;94338.16;4977045;28;20215;-63
2022/08/22 06:06:36;;;;;;;15.57;13.98;;;;;;;20.74;65.52;94341.88;4964091;28;20280;-63
2022/08/22 06:09:08;;;;;;;16.73;15.20;;;;;;;20.86;64.96;94343.50;4964220;28;20239;-63
2022/08/22 06:11:45;;;;;;;17.05;15.48;;;;;;;20.87;65.04;94341.66;4962049;28;20250;-63
2022/08/22 06:14:20;;;;;;;15.40;14.07;;;;;;;20.83;64.91;94335.16;4968347;28;20211;-63
2022/08/22 06:16:58;;;;;;;16.48;14.75;;;;;;;21.01;64.12;94342.22;5006957;28;20213;-64
2022/08/22 06:19:24;;;;;;;15.00;13.60;;;;;;;21.00;63.91;94345.94;5037254;28;20251;-62
2022/08/22 06:21:52;;;;;;;15.10;13.50;;;;;;;21.14;64.03;94340.16;5039212;28;20307;-63
2022/08/22 06:24:25;;;;;;;15.48;13.88;;;;;;;21.25;63.82;94343.03;5039304;28;20221;-64
2022/08/22 06:26:57;;;;;;;15.60;14.15;;;;;;;21.35;63.44;94341.38;5043888;28;20225;-62
2022/08/22 06:29:59;;;;;;;13.77;12.48;;;;;;;21.46;62.56;94344.31;5043412;28;20208;-61
2022/08/22 06:32:29;;;;;;;14.32;12.77;;;;;;;21.44;62.13;94344.56;5036617;28;20200;-64
2022/08/22 06:35:00;;;;;;;14.88;13.48;;;;;;;21.27;62.58;94328.38;5037441;28;20584;-64
2022/08/22 06:37:32;;;;;;;14.38;13.07;;;;;;;21.11;63.52;94347.81;5042005;28;20217;-63
2022/08/22 06:40:01;;;;;;;14.05;12.75;;;;;;;21.28;62.71;94342.56;5043233;28;20312;-62
2022/08/22 06:42:31;;;;;;;13.02;11.80;;;;;;;21.15;63.23;94344.44;5049879;28;20255;-64
2022/08/22 06:45:32;;;;;;;13.93;12.63;;;;;;;21.01;63.99;94347.56;5045914;28;20217;-63
2022/08/22 06:48:14;;;;;;;13.43;11.88;;;;;;;21.23;63.06;94347.81;5038429;28;20225;-63
2022/08/22 06:50:43;;;;;;;12.88;11.70;;;;;;;21.39;61.86;94347.13;5033026;28;20218;-63
2022/08/22 06:53:23;;;;;;;12.57;11.38;;;;;;;21.50;60.87;94348.97;5041091;28;20204;-62
2022/08/22 06:55:53;;;;;;;13.80;12.32;;;;;;;21.52;61.27;94344.19;5033657;28;20217;-62
2022/08/22 06:58:25;;;;;;;12.43;11.32;;;;;;;21.61;61.39;94351.84;5042218;28;20226;-63
2022/08/22 07:00:55;;;;;;;11.95;10.00;;;;;;;21.63;60.38;94347.88;5049268;28;20245;-62
2022/08/22 07:03:32;;;;;;;12.60;11.32;;;;;;;21.79;59.78;94343.66;5042355;28;20249;-62
2022/08/22 07:05:59;;;;;;;12.02;10.70;;;;;;;21.80;60.16;94342.59;5042135;28;20237;-62
2022/08/22 07:08:27;;;;;;;11.80;10.82;;;;;;;21.86;60.20;94348.84;5052845;28;20193;-62
2022/08/22 07:11:31;;;;;;;11.82;10.63;;;;;;;21.82;60.08;94345.03;5041127;28;20200;-62
2022/08/22 07:14:07;;;;;;;11.27;10.27;;;;;;;21.90;59.58;94358.84;5040173;28;20236;-62
2022/08/22 07:16:41;;;;;;;11.80;10.68;;;;;;;22.01;59.40;94344.63;5038228;28;20217;-61
2022/08/22 07:19:12;;;;;;;11.82;10.77;;;;;;;22.10;59.59;94347.72;5038243;28;20221;-61
2022/08/22 07:21:44;;;;;;;12.45;11.35;;;;;;;22.00;60.50;94351.03;5050603;28;20632;-61
2022/08/22 07:24:14;;;;;;;12.25;11.15;;;;;;;22.18;59.09;94352.72;5044597;28;20226;-60
2022/08/22 07:27:07;;;;;;;12.25;11.05;;;;;;;22.52;58.32;94358.13;5037280;28;20225;-60
2022/08/22 07:30:07;;;;;;;11.82;10.77;;;;;;;22.63;57.63;94359.13;5039511;28;20197;-60
2022/08/22 07:32:42;;;;;;;13.40;10.73;;;;;;;22.43;58.29;94349.69;4986066;28;20582;-63
2022/08/22 07:35:16;;;;;;;11.00;10.00;;;;;;;22.20;58.36;94352.47;4987436;28;20194;-61
2022/08/22 07:38:03;;;;;;;12.20;10.95;;;;;;;22.59;57.77;94361.47;4985716;28;20314;-62
2022/08/22 07:40:38;;;;;;;10.95;9.60;;;;;;;22.75;57.14;94348.31;4984999;28;20236;-62
2022/08/22 07:43:25;;;;;;;11.30;10.20;;;;;;;22.78;56.79;94354.03;4966229;28;20322;-61
2022/08/22 07:45:53;;;;;;;10.98;9.98;;;;;;;22.47;57.01;94352.69;4965757;28;20276;-61
2022/08/22 07:48:27;;;;;;;13.65;10.35;;;;;;;22.79;56.87;94344.91;4966146;28;20227;-64
2022/08/22 07:51:05;;;;;;;12.00;10.77;;;;;;;22.52;56.78;94349.28;4966795;28;20262;-63
2022/08/22 07:53:43;;;;;;;11.88;10.65;;;;;;;22.57;57.25;94355.53;4988941;28;20266;-63
2022/08/22 07:56:16;;;;;;;10.55;9.43;;;;;;;22.61;57.00;94348.66;4986249;28;20788;-63
2022/08/22 07:58:46;;;;;;;11.68;10.60;;;;;;;22.99;56.24;94349.81;4963843;28;20223;-63
2022/08/22 08:01:16;;;;;;;11.00;10.00;;;;;;;22.88;55.60;94348.81;4969829;28;20235;-63
2022/08/22 08:03:48;;;;;;;11.77;10.52;;;;;;;22.83;55.79;94346.06;4970401;28;20219;-63
2022/08/22 08:06:13;;;;;;;11.63;10.38;;;;;;;22.96;56.03;94342.28;4972943;28;20235;-63
2022/08/22 08:08:43;;;;;;;10.90;9.85;;;;;;;23.09;54.68;94346.47;4994522;28;20233;-63
2022/08/22 08:11:14;;;;;;;10.93;9.80;;;;;;;23.13;54.96;94347.59;5047292;28;20224;-61
2022/08/22 08:13:44;;;;;;;10.90;9.80;;;;;;;23.35;54.70;94350.31;5045974;28;20237;-63
2022/08/22 08:16:16;;;;;;;11.20;10.10;;;;;;;23.47;54.30;94337.63;5037581;28;20225;-62
2022/08/22 08:18:46;;;;;;;11.25;10.15;;;;;;;23.36;54.42;94343.88;5048267;28;20214;-62
2022/08/22 08:21:29;;;;;;;11.05;9.95;;;;;;;23.46;54.21;94340.53;5038674;28;20252;-62
2022/08/22 08:23:55;;;;;;;11.93;10.52;;;;;;;23.28;55.05;94337.09;5038315;28;20278;-62
2022/08/22 08:26:26;;;;;;;12.05;10.80;;;;;;;23.43;55.09;94338.34;5044792;28;20259;-62
2022/08/22 08:28:54;;;;;;;11.50;10.38;;;;;;;23.46;55.62;94337.84;5025136;28;20205;-62
2022/08/22 08:31:26;;;;;;;10.95;9.85;;;;;;;23.56;55.13;94327.25;5047162;28;20472;-62
2022/08/22 08:34:15;;;;;;;11.88;9.80;;;;;;;23.41;55.86;94327.84;5038712;28;20292;-61
2022/08/22 08:36:52;;;;;;;10.85;9.82;;;;;;;23.64;54.35;94334.88;5035681;28;20233;-62
2022/08/22 08:39:23;;;;;;;11.93;10.77;;;;;;;23.36;54.30;94335.03;5036352;28;20268;-61
2022/08/22 08:41:51;;;;;;;11.40;10.00;;;;;;;23.46;54.44;94327.13;5036063;28;20242;-61
2022/08/22 08:44:34;;;;;;;12.57;10.80;;;;;;;23.33;55.89;94334.50;5036558;28;20348;-61
2022/08/22 08:47:44;;;;;;;11.35;10.25;;;;;;;23.48;55.53;94331.19;5044497;28;20230;-62
2022/08/22 08:50:15;;;;;;;11.00;10.07;;;;;;;23.68;53.84;94333.31;4986756;28;20324;-62
2022/08/22 08:52:59;;;;;;;11.82;10.65;;;;;;;23.85;53.62;94329.78;4965443;28;20241;-62
2022/08/22 08:55:24;;;;;;;11.18;10.18;;;;;;;23.88;52.68;94329.28;4963811;28;20263;-62
2022/08/22 08:58:04;;;;;;;10.77;9.77;;;;;;;23.92;52.51;94335.75;4985681;28;20254;-63
2022/08/22 09:00:51;;;;;;;11.18;10.05;;;;;;;23.78;53.13;94330.78;4982483;28;20258;-62
2022/08/22 09:03:27;;;;;;;10.75;9.75;;;;;;;23.74;53.10;94323.50;4972754;28;20686;-61
2022/08/22 09:06:08;;;;;;;11.98;9.88;;;;;;;23.84;52.86;94330.84;4978745;28;20241;-62
2022/08/22 09:08:48;;;;;;;11.40;10.30;;;;;;;24.14;52.40;94323.13;4985097;28;20253;-62
2022/08/22 09:11:51;;;;;;;12.02;10.98;;;;;;;23.90;53.40;94324.47;4969451;28;20222;-62
2022/08/22 09:14:20;;;;;;;12.25;11.10;;;;;;;24.11;53.47;94326.31;4982565;28;20230;-62
2022/08/22 09:16:54;;;;;;;11.20;10.23;;;;;;;24.34;53.01;94322.50;4979886;28;20211;-61
2022/08/22 09:19:36;;;;;;;11.98;10.43;;;;;;;24.80;50.87;94325.59;4984480;28;20501;-62
2022/08/22 09:22:32;;;;;;;12.23;9.68;;;;;;;25.11;50.19;94323.16;4988549;28;20227;-62
2022/08/22 09:25:25;;;;;;;11.70;9.70;;;;;;;25.40;48.95;94336.28;4969003;28;20223;-60
2022/08/22 09:28:09;;;;;;;10.18;9.18;;;;;;;25.36;48.49;94330.59;5031699;28;20304;-60
2022/08/22 09:30:56;;;;;;;10.80;9.80;;;;;;;25.49;47.45;94332.81;5042172;28;20230;-60
2022/08/22 09:33:29;;;;;;;10.43;9.48;;;;;;;25.62;47.71;94323.44;5041488;28;20237;-61
2022/08/22 09:36:01;;;;;;;9.95;9.10;;;;;;;25.40;47.57;94328.19;5039645;28;20236;-62
2022/08/22 09:39:02;;;;;;;8.98;8.07;;;;;;;25.36;48.83;94317.13;5042049;28;20213;-61
2022/08/22 09:41:39;;;;;;;10.10;9.10;;;;;;;26.09;46.84;94321.75;4931459;28;20244;-61
2022/08/22 09:44:30;;;;;;;9.52;8.60;;;;;;;25.94;46.18;94320.66;4929518;28;20228;-61
2022/08/22 09:47:25;;;;;;;9.35;8.55;;;;;;;25.83;46.02;94310.09;4934793;28;20237;-61
2022/08/22 09:50:17;;;;;;;8.80;7.97;;;;;;;25.79;46.40;94307.09;4934073;28;20252;-61
2022/08/22 09:52:52;;;;;;;9.50;8.57;;;;;;;25.81;46.23;94307.63;4920551;28;20229;-61
2022/08/22 09:55:26;;;;;;;9.77;8.88;;;;;;;25.73;46.23;94300.88;4923978;28;20243;-61
2022/08/22 09:58:05;;;;;;;8.32;7.63;;;;;;;25.52;45.66;94299.97;4926786;29;20232;-62
2022/08/22 10:00:53;;;;;;;9.95;8.68;;;;;;;25.56;45.93;94294.09;4938141;28;20224;-61
2022/08/22 10:03:47;;;;;;;9.73;8.82;;;;;;;25.63;46.32;94294.63;4924386;29;20224;-60
2022/08/22 10:06:20;;;;;;;9.40;8.60;;;;;;;25.72;45.97;94287.69;4923828;29;20300;-61
2022/08/22 10:08:59;;;;;;;9.02;8.07;;;;;;;25.73;46.31;94281.22;4923101;28;20224;-61
2022/08/22 10:11:27;;;;;;;10.10;9.13;;;;;;;25.90;46.12;94273.78;4922334;28;20208;-61
2022/08/22 10:14:01;;;;;;;8.93;8.18;;;;;;;26.46;45.52;94277.63;4937658;28;20241;-61
2022/08/22 10:16:42;;;;;;;8.85;8.13;;;;;;;26.58;44.28;94281.69;4962768;28;20308;-61
2022/08/22 10:19:22;;;;;;;9.20;8.40;;;;;;;26.53;43.84;94268.22;5043256;28;20419;-61
2022/08/22 10:22:16;;;;;;;9.27;8.45;;;;;;;26.75;43.25;94270.63;5038894;28;20229;-61
2022/08/22 10:25:18;;;;;;;8.60;7.90;;;;;;;26.95;42.74;94263.63;5040191;28;20237;-61
2022/08/22 10:28:26;;;;;;;9.55;8.65;;;;;;;27.17;42.30;94264.13;5033745;28;20303;-62
2022/08/22 10:31:07;;;;;;;8.27;7.57;;;;;;;27.40;43.01;94253.78;5042793;28;20485;-62
2022/08/22 10:33:45;;;;;;;9.85;8.82;;;;;;;26.90;43.71;94258.22;5036089;28;20286;-61
2022/08/22 10:36:22;;;;;;;9.20;8.40;;;;;;;26.12;44.56;94251.19;5047944;28;20220;-61
2022/08/22 10:38:54;;;;;;;9.63;8.70;;;;;;;26.01;44.69;94244.97;5040605;28;20252;-62
2022/08/22 10:41:34;;;;;;;8.52;7.65;;;;;;;26.04;45.26;94236.38;5042184;28;20233;-62
2022/08/22 10:44:25;;;;;;;9.95;9.07;;;;;;;26.03;45.88;94240.13;5043447;28;20221;-62
2022/08/22 10:46:55;;;;;;;9.70;8.88;;;;;;;26.07;46.18;94240.41;5037144;28;20324;-61
2022/08/22 10:49:45;;;;;;;9.27;8.43;;;;;;;26.06;46.02;94242.31;5035780;28;20225;-62
2022/08/22 10:52:20;;;;;;;9.63;8.73;;;;;;;26.28;46.02;94244.75;5044374;28;20234;-61
2022/08/22 10:54:50;;;;;;;9.98;9.00;;;;;;;26.53;44.53;94240.47;5043648;28;20263;-61
2022/08/22 10:57:24;;;;;;;9.60;8.80;;;;;;;26.90;44.25;94242.84;5041864;28;20247;-62
2022/08/22 10:59:49;;;;;;;10.38;9.48;;;;;;;27.21;42.87;94242.78;5035401;28;20201;-61
2022/08/22 11:02:49;;;;;;;9.63;8.82;;;;;;;27.39;42.57;94236.78;5037408;28;20213;-62
2022/08/22 11:05:35;;;;;;;9.50;8.60;;;;;;;27.36;42.23;94239.25;5041771;28;20253;-61
2022/08/22 11:08:17;;;;;;;9.18;8.38;;;;;;;27.10;42.45;94230.38;5043403;28;20245;-62
2022/08/22 11:11:03;;;;;;;9.70;8.80;;;;;;;27.28;42.92;94230.63;5034612;28;20221;-62
2022/08/22 11:14:03;;;;;;;10.55;9.60;;;;;;;27.14;43.50;94226.88;5043281;28;20324;-62
2022/08/22 11:16:56;;;;;;;9.45;8.55;;;;;;;26.78;43.19;94231.53;5036545;28;20276;-62
2022/08/22 11:19:48;;;;;;;9.75;8.85;;;;;;;26.10;44.93;94229.09;5044830;28;20309;-63
2022/08/22 11:22:19;;;;;;;9.45;8.65;;;;;;;26.38;44.78;94235.84;4988943;28;20242;-62
2022/08/22 11:25:39;;;;;;;9.38;8.48;;;;;;;26.51;44.85;94237.19;4986438;28;20238;-62
2022/08/22 11:28:24;;;;;;;9.60;8.73;;;;;;;26.54;44.45;94226.72;4910107;29;20245;-61
2022/08/22 11:31:02;;;;;;;10.48;8.90;;;;;;;26.38;44.30;94231.28;4911338;29;20237;-61
2022/08/22 11:33:43;;;;;;;9.90;9.10;;;;;;;26.55;44.09;94236.41;4926247;29;20245;-61
2022/08/22 11:36:20;;;;;;;11.00;9.20;;;;;;;26.49;44.56;94233.94;4925296;29;20311;-62
2022/08/22 11:39:04;;;;;;;8.90;8.20;;;;;;;26.42;45.51;94231.53;4905214;29;20217;-62
2022/08/22 11:41:58;;;;;;;11.00;9.43;;;;;;;26.35;45.69;94220.19;4911570;29;20241;-62
2022/08/22 11:44:33;;;;;;;9.55;8.80;;;;;;;26.64;44.67;94217.78;4922009;29;20237;-62
2022/08/22 11:47:00;;;;;;;10.60;8.40;;;;;;;27.03;44.63;94220.69;4929568;29;20235;-62
2022/08/22 11:49:30;;;;;;;9.75;8.88;;;;;;;27.31;44.13;94228.47;4928555;29;20578;-61
2022/08/22 11:51:59;;;;;;;9.95;9.07;;;;;;;27.91;42.16;94222.00;4922447;29;20245;-62
2022/08/22 11:54:58;;;;;;;10.73;9.82;;;;;;;28.23;40.71;94223.41;4931197;29;20230;-62
2022/08/22 11:57:36;;;;;;;9.10;8.32;;;;;;;28.56;40.27;94227.22;4926645;29;20213;-61
2022/08/22 12:00:25;;;;;;;8.73;7.75;;;;;;;28.82;38.96;94220.78;4964315;28;20228;-62
2022/08/22 12:03:15;;;;;;;10.35;8.68;;;;;;;29.16;39.04;94212.59;4946075;28;20226;-62
2022/08/22 12:05:40;;;;;;;9.75;8.85;;;;;;;29.37;38.81;94210.47;5043103;28;20248;-61
2022/08/22 12:08:33;;;;;;;9.82;9.02;;;;;;;29.41;39.11;94212.31;5037656;28;20245;-61
2022/08/22 12:11:24;;;;;;;9.93;8.95;;;;;;;29.48;39.04;94211.94;5036158;28;20260;-60
2022/08/22 12:14:00;;;;;;;9.77;8.77;;;;;;;29.79;38.12;94206.97;5049814;28;20271;-61
2022/08/22 12:16:41;;;;;;;9.85;8.93;;;;;;;30.02;37.59;94209.91;5048263;28;20309;-62
2022/08/22 12:19:33;;;;;;;9.70;8.80;;;;;;;30.05;37.64;94203.91;5042978;28;20221;-61
2022/08/22 12:22:36;;;;;;;9.27;8.55;;;;;;;29.50;38.13;94195.41;5038388;28;20312;-61